Time;durP1;ratioP1;P1;durP2;ratioP2;P2;SDS_P1;SDS_P2;PMS_P1;PMS_P2;Temp;Humidity;BMP_temperature;BMP_pressure;BME280_temperature;BME280_humidity;BME280_pressure;Samples;Min_cycle;Max_cycle;Signal;HPM_P1;HPM_P2
2022/09/09 00:02:28;;;;;;;;;;;19.80;99.90;;;;;;5042339;28;20190;-67
2022/09/09 00:05:01;;;;;;;;;;;19.80;99.90;;;;;;5044443;28;20202;-67
2022/09/09 00:07:33;;;;;;;;;;;19.80;99.90;;;;;;5040455;28;20202;-65
2022/09/09 00:10:04;;;;;;;;;;;19.60;99.90;;;;;;5042240;28;20212;-67
2022/09/09 00:12:35;;;;;;;;;;;19.60;99.90;;;;;;5045881;28;20202;-68
2022/09/09 00:15:06;;;;;;;;;;;19.60;99.90;;;;;;5045759;28;20207;-67
2022/09/09 00:17:36;;;;;;;;;;;19.60;99.90;;;;;;5042776;28;20638;-68
2022/09/09 00:20:06;;;;;;;;;;;19.60;99.90;;;;;;5043707;28;20293;-67
2022/09/09 00:22:34;;;;;;;;;;;19.50;99.90;;;;;;5047229;28;20221;-67
2022/09/09 00:25:10;;;;;;;;;;;19.60;99.90;;;;;;5041798;28;20947;-67
2022/09/09 00:27:41;;;;;;;;;;;19.60;99.90;;;;;;5041051;28;20432;-68
2022/09/09 00:30:14;;;;;;;;;;;19.80;99.90;;;;;;5040921;28;20216;-67
2022/09/09 00:32:42;;;;;;;;;;;19.80;99.90;;;;;;5043646;28;20596;-68
2022/09/09 00:35:16;;;;;;;;;;;19.60;99.90;;;;;;5047379;28;20845;-67
2022/09/09 00:37:44;;;;;;;;;;;19.60;99.90;;;;;;5049108;28;20576;-69
2022/09/09 00:40:19;;;;;;;;;;;19.70;99.90;;;;;;5046146;28;20201;-68
2022/09/09 00:42:53;;;;;;;;;;;19.60;99.90;;;;;;5042032;28;20202;-69
2022/09/09 00:45:32;;;;;;;;;;;19.80;99.90;;;;;;5039658;28;20213;-70
2022/09/09 00:48:01;;;;;;;;;;;19.80;99.90;;;;;;5038131;28;20225;-69
2022/09/09 00:50:35;;;;;;;;;;;19.60;99.90;;;;;;5039586;28;20202;-69
2022/09/09 00:53:12;;;;;;;;;;;19.60;99.90;;;;;;5046279;28;20642;-69
2022/09/09 00:55:43;;;;;;;;;;;19.40;99.90;;;;;;5039455;28;20569;-70
2022/09/09 00:58:13;;;;;;;;;;;19.50;99.90;;;;;;5035410;28;20200;-70
2022/09/09 01:00:43;;;;;;;;;;;19.50;99.90;;;;;;5035500;28;20689;-69
2022/09/09 01:03:20;;;;;;;;;;;19.50;99.90;;;;;;5044184;28;20198;-70
2022/09/09 01:05:52;;;;;;;;;;;19.30;99.90;;;;;;5040051;28;20399;-69
2022/09/09 01:08:29;;;;;;;;;;;19.20;99.90;;;;;;5039391;28;20206;-70
2022/09/09 01:10:57;;;;;;;;;;;19.20;99.90;;;;;;5039766;28;20208;-68
2022/09/09 01:13:30;;;;;;;;;;;19.10;99.90;;;;;;5037916;28;20203;-71
2022/09/09 01:15:59;;;;;;;;;;;19.20;99.90;;;;;;5039738;28;20198;-71
2022/09/09 01:18:29;;;;;;;;;;;19.30;99.90;;;;;;5037170;28;20256;-70
2022/09/09 01:21:03;;;;;;;;;;;19.30;99.90;;;;;;5034466;28;20206;-70
2022/09/09 01:23:38;;;;;;;;;;;19.20;99.90;;;;;;5039994;28;20215;-70
2022/09/09 01:26:16;;;;;;;;;;;19.20;99.90;;;;;;5032863;28;20229;-69
2022/09/09 01:28:45;;;;;;;;;;;18.90;99.90;;;;;;5036129;28;20282;-70
2022/09/09 01:31:16;;;;;;;;;;;18.80;99.90;;;;;;5031924;28;20198;-69
2022/09/09 01:33:44;;;;;;;;;;;19.00;99.90;;;;;;5040721;28;20194;-70
2022/09/09 01:36:13;;;;;;;;;;;19.20;99.90;;;;;;5033262;28;20194;-70
2022/09/09 01:38:41;;;;;;;;;;;19.10;99.90;;;;;;5039894;28;20203;-71
2022/09/09 01:41:09;;;;;;;;;;;19.20;99.90;;;;;;5042064;28;20195;-70
2022/09/09 01:43:38;;;;;;;;;;;19.20;99.90;;;;;;5037901;28;20199;-71
2022/09/09 01:46:05;;;;;;;;;;;19.10;99.90;;;;;;5036452;28;20206;-70
2022/09/09 01:48:33;;;;;;;;;;;19.20;99.90;;;;;;5033827;28;20301;-71
2022/09/09 01:51:01;;;;;;;;;;;19.40;99.90;;;;;;5034883;28;20209;-69
2022/09/09 01:53:29;;;;;;;;;;;19.10;99.90;;;;;;5043819;28;20198;-70
2022/09/09 01:56:03;;;;;;;;;;;19.00;99.90;;;;;;5051808;28;20202;-70
2022/09/09 01:58:34;;;;;;;;;;;19.10;99.90;;;;;;5042157;28;20210;-69
2022/09/09 02:01:07;;;;;;;;;;;19.20;99.90;;;;;;5039125;28;20209;-70
2022/09/09 02:03:36;;;;;;;;;;;19.10;99.90;;;;;;5043324;28;20673;-69
2022/09/09 02:06:11;;;;;;;;;;;19.30;99.90;;;;;;5045225;28;20210;-69
2022/09/09 02:08:42;;;;;;;;;;;19.10;99.90;;;;;;5042377;28;20209;-70
2022/09/09 02:11:12;;;;;;;;;;;19.10;99.90;;;;;;5041319;28;20209;-70
2022/09/09 02:13:40;;;;;;;;;;;19.10;99.90;;;;;;5042117;28;20209;-69
2022/09/09 02:16:11;;;;;;;;;;;19.10;99.90;;;;;;5041207;28;20203;-70
2022/09/09 02:18:40;;;;;;;;;;;19.20;99.90;;;;;;5045391;28;20206;-70
2022/09/09 02:21:11;;;;;;;;;;;19.10;99.90;;;;;;5052180;28;20208;-70
2022/09/09 02:23:40;;;;;;;;;;;19.10;99.90;;;;;;5034143;28;20206;-70
2022/09/09 02:26:09;;;;;;;;;;;19.10;99.90;;;;;;5035981;28;20203;-69
2022/09/09 02:28:38;;;;;;;;;;;19.10;99.90;;;;;;5040350;28;20194;-69
2022/09/09 02:31:06;;;;;;;;;;;19.10;99.90;;;;;;5033837;28;20599;-70
2022/09/09 02:33:37;;;;;;;;;;;19.10;99.90;;;;;;5042664;28;20194;-71
2022/09/09 02:36:06;;;;;;;;;;;19.10;99.90;;;;;;5041501;28;20209;-71
2022/09/09 02:38:35;;;;;;;;;;;19.20;99.90;;;;;;5036867;28;20297;-69
2022/09/09 02:41:04;;;;;;;;;;;19.30;99.90;;;;;;5031310;28;20202;-69
2022/09/09 02:43:32;;;;;;;;;;;19.20;99.90;;;;;;5038697;28;20206;-70
2022/09/09 02:46:05;;;;;;;;;;;19.20;99.90;;;;;;5042180;28;20245;-69
2022/09/09 02:48:38;;;;;;;;;;;19.20;99.90;;;;;;5038276;28;20190;-70
2022/09/09 02:51:11;;;;;;;;;;;19.20;99.90;;;;;;5033988;28;20213;-70
2022/09/09 02:53:43;;;;;;;;;;;19.30;99.90;;;;;;5039363;28;20601;-70
2022/09/09 02:56:15;;;;;;;;;;;19.30;99.90;;;;;;5028241;28;20215;-69
2022/09/09 02:58:43;;;;;;;;;;;19.30;99.90;;;;;;5043715;28;20211;-69
2022/09/09 03:01:10;;;;;;;;;;;19.40;99.90;;;;;;5034201;28;20669;-69
2022/09/09 03:03:39;;;;;;;;;;;19.50;99.90;;;;;;5039439;28;20201;-71
2022/09/09 03:06:07;;;;;;;;;;;19.40;99.90;;;;;;5033164;28;20249;-68
2022/09/09 03:08:36;;;;;;;;;;;19.60;99.90;;;;;;5037650;28;20201;-71
2022/09/09 03:11:04;;;;;;;;;;;19.50;99.90;;;;;;5041115;28;20699;-69
2022/09/09 03:13:32;;;;;;;;;;;19.30;99.90;;;;;;5039043;28;20677;-70
2022/09/09 03:16:00;;;;;;;;;;;19.20;99.90;;;;;;5041063;28;20194;-67
2022/09/09 03:18:28;;;;;;;;;;;19.30;99.90;;;;;;5035998;28;20213;-69
2022/09/09 03:20:55;;;;;;;;;;;19.30;99.90;;;;;;5034579;28;20202;-69
2022/09/09 03:23:24;;;;;;;;;;;19.00;99.90;;;;;;5040404;28;20202;-69
2022/09/09 03:25:56;;;;;;;;;;;19.00;99.90;;;;;;5034037;28;20198;-71
2022/09/09 03:28:29;;;;;;;;;;;19.00;99.90;;;;;;5045941;28;20202;-71
2022/09/09 03:30:59;;;;;;;;;;;19.00;99.90;;;;;;5036385;28;20197;-70
2022/09/09 03:33:27;;;;;;;;;;;19.00;99.90;;;;;;5039483;28;20593;-71
2022/09/09 03:35:56;;;;;;;;;;;19.10;99.90;;;;;;5038306;28;20202;-70
2022/09/09 03:38:24;;;;;;;;;;;19.10;99.90;;;;;;5041245;28;20202;-70
2022/09/09 03:40:55;;;;;;;;;;;19.30;99.90;;;;;;5037218;28;20664;-71
2022/09/09 03:43:23;;;;;;;;;;;19.30;99.90;;;;;;5029557;28;20206;-70
2022/09/09 03:45:51;;;;;;;;;;;19.30;99.90;;;;;;5034504;28;20225;-70
2022/09/09 03:48:19;;;;;;;;;;;19.20;99.90;;;;;;5029509;28;20627;-70
2022/09/09 03:50:47;;;;;;;;;;;19.20;99.90;;;;;;5040027;28;20273;-71
2022/09/09 03:53:15;;;;;;;;;;;19.00;99.90;;;;;;5034216;28;20202;-70
2022/09/09 03:55:45;;;;;;;;;;;18.80;99.90;;;;;;5033150;28;20191;-71
2022/09/09 03:58:14;;;;;;;;;;;18.90;99.90;;;;;;5034932;28;20204;-70
2022/09/09 04:00:44;;;;;;;;;;;18.90;99.90;;;;;;5035326;28;20196;-69
2022/09/09 04:03:12;;;;;;;;;;;18.90;99.90;;;;;;5037167;28;20190;-69
2022/09/09 04:05:42;;;;;;;;;;;18.80;99.90;;;;;;5034450;28;20194;-70
2022/09/09 04:08:11;;;;;;;;;;;18.90;99.90;;;;;;5039918;28;20199;-70
2022/09/09 04:10:39;;;;;;;;;;;19.00;99.90;;;;;;5036412;28;20187;-70
2022/09/09 04:13:06;;;;;;;;;;;18.90;99.90;;;;;;5030388;28;20202;-69
2022/09/09 04:15:36;;;;;;;;;;;19.00;99.90;;;;;;5033187;28;20205;-69
2022/09/09 04:18:05;;;;;;;;;;;19.10;99.90;;;;;;5033190;28;20305;-69
2022/09/09 04:20:33;;;;;;;;;;;19.00;99.90;;;;;;5035173;28;20202;-69
2022/09/09 04:23:01;;;;;;;;;;;19.20;99.90;;;;;;5037566;28;20209;-70
2022/09/09 04:25:28;;;;;;;;;;;19.30;99.90;;;;;;5044232;28;20194;-72
2022/09/09 04:27:57;;;;;;;;;;;19.30;99.90;;;;;;5046126;28;20201;-71
2022/09/09 04:30:25;;;;;;;;;;;19.40;99.90;;;;;;5049174;28;20203;-71
2022/09/09 04:32:54;;;;;;;;;;;19.60;99.90;;;;;;5042749;28;20198;-71
2022/09/09 04:35:22;;;;;;;;;;;19.60;99.90;;;;;;5039299;28;20203;-71
2022/09/09 04:37:50;;;;;;;;;;;19.50;99.90;;;;;;5040972;28;22138;-70
2022/09/09 04:40:18;;;;;;;;;;;19.40;99.90;;;;;;5044230;28;20199;-70
2022/09/09 04:42:47;;;;;;;;;;;19.30;99.90;;;;;;5045921;28;20625;-71
2022/09/09 04:45:15;;;;;;;;;;;19.10;99.90;;;;;;5040509;28;20206;-69
2022/09/09 04:47:43;;;;;;;;;;;19.00;99.90;;;;;;5034638;28;20325;-70
2022/09/09 04:50:12;;;;;;;;;;;18.90;99.90;;;;;;5034337;28;20213;-69
2022/09/09 04:52:40;;;;;;;;;;;18.90;99.90;;;;;;5039547;28;20233;-69
2022/09/09 04:55:09;;;;;;;;;;;19.00;99.90;;;;;;5037331;28;20205;-69
2022/09/09 04:57:36;;;;;;;;;;;19.10;99.90;;;;;;5034339;28;20884;-69
2022/09/09 05:00:05;;;;;;;;;;;19.30;99.90;;;;;;5031989;28;20732;-69
2022/09/09 05:02:33;;;;;;;;;;;19.40;99.90;;;;;;5038518;28;20071;-69
2022/09/09 05:05:00;;;;;;;;;;;19.30;99.90;;;;;;5036986;28;20220;-70
2022/09/09 05:07:31;;;;;;;;;;;19.30;99.90;;;;;;5038569;28;20217;-69
2022/09/09 05:09:58;;;;;;;;;;;19.20;99.90;;;;;;5039094;28;20199;-69
2022/09/09 05:12:26;;;;;;;;;;;19.20;99.90;;;;;;5035679;28;20199;-69
2022/09/09 05:14:54;;;;;;;;;;;19.00;99.90;;;;;;5034976;28;20213;-69
2022/09/09 05:17:21;;;;;;;;;;;19.00;99.90;;;;;;5037764;28;20220;-69
2022/09/09 05:19:49;;;;;;;;;;;19.10;99.90;;;;;;5037949;28;20595;-69
2022/09/09 05:22:20;;;;;;;;;;;19.30;99.90;;;;;;5035511;28;22189;-69
2022/09/09 05:24:50;;;;;;;;;;;18.90;99.90;;;;;;5035769;28;20225;-69
2022/09/09 05:27:19;;;;;;;;;;;18.90;99.90;;;;;;5036980;28;20207;-69
2022/09/09 05:29:47;;;;;;;;;;;18.80;99.90;;;;;;5037186;28;20218;-69
2022/09/09 05:32:16;;;;;;;;;;;18.50;99.90;;;;;;5031288;28;20205;-69
2022/09/09 05:34:44;;;;;;;;;;;18.60;99.90;;;;;;5031194;28;20206;-69
2022/09/09 05:37:12;;;;;;;;;;;18.60;99.90;;;;;;5036826;28;20769;-69
2022/09/09 05:39:40;;;;;;;;;;;18.60;99.90;;;;;;5036747;28;21524;-69
2022/09/09 05:42:09;;;;;;;;;;;18.70;99.90;;;;;;5034114;28;20661;-69
2022/09/09 05:44:37;;;;;;;;;;;18.80;99.90;;;;;;5036497;28;20215;-69
2022/09/09 05:47:04;;;;;;;;;;;18.80;99.90;;;;;;5033978;28;20210;-69
2022/09/09 05:49:32;;;;;;;;;;;18.90;99.90;;;;;;5033312;28;20760;-69
2022/09/09 05:52:00;;;;;;;;;;;19.00;99.90;;;;;;5036965;28;20202;-69
2022/09/09 05:54:28;;;;;;;;;;;19.00;99.90;;;;;;5038869;28;20582;-70
2022/09/09 05:56:55;;;;;;;;;;;19.20;99.90;;;;;;5030087;28;20677;-69
2022/09/09 05:59:24;;;;;;;;;;;19.00;99.90;;;;;;5031836;28;20198;-69
2022/09/09 06:01:52;;;;;;;;;;;18.80;99.90;;;;;;5033675;28;20471;-68
2022/09/09 06:04:22;;;;;;;;;;;18.40;99.90;;;;;;5034777;28;20322;-69
2022/09/09 06:06:50;;;;;;;;;;;18.10;99.90;;;;;;5035527;28;20206;-71
2022/09/09 06:09:17;;;;;;;;;;;17.90;99.90;;;;;;5033621;28;20216;-69
2022/09/09 06:11:45;;;;;;;;;;;17.90;99.90;;;;;;5037482;28;20208;-69
2022/09/09 06:14:13;;;;;;;;;;;18.00;99.90;;;;;;5039607;28;20603;-69
2022/09/09 06:16:42;;;;;;;;;;;18.00;99.90;;;;;;5036063;28;20616;-68
2022/09/09 06:19:12;;;;;;;;;;;18.10;99.90;;;;;;5036460;28;20260;-69
2022/09/09 06:21:40;;;;;;;;;;;18.10;99.90;;;;;;5032551;28;20784;-69
2022/09/09 06:24:08;;;;;;;;;;;17.90;99.90;;;;;;5038822;28;20277;-71
2022/09/09 06:26:36;;;;;;;;;;;18.00;99.90;;;;;;5040930;28;20205;-69
2022/09/09 06:29:04;;;;;;;;;;;17.90;99.90;;;;;;5035850;28;20208;-70
2022/09/09 06:31:34;;;;;;;;;;;17.70;99.90;;;;;;5049194;28;20244;-73
2022/09/09 06:34:05;;;;;;;;;;;17.50;99.90;;;;;;5050803;28;20260;-70
2022/09/09 06:36:34;;;;;;;;;;;17.50;99.90;;;;;;5045009;28;20588;-70
2022/09/09 06:39:02;;;;;;;;;;;17.20;99.90;;;;;;5052152;28;20207;-70
2022/09/09 06:41:31;;;;;;;;;;;17.20;99.90;;;;;;5051938;28;20229;-69
2022/09/09 06:43:58;;;;;;;;;;;17.10;99.90;;;;;;5049895;28;20190;-70
2022/09/09 06:46:28;;;;;;;;;;;17.20;99.90;;;;;;5051936;28;20209;-69
2022/09/09 06:48:57;;;;;;;;;;;17.20;99.90;;;;;;5036377;28;20694;-69
2022/09/09 06:51:27;;;;;;;;;;;17.30;99.90;;;;;;5041552;28;20202;-69
2022/09/09 06:53:56;;;;;;;;;;;17.50;99.90;;;;;;5047428;28;20202;-70
2022/09/09 06:56:24;;;;;;;;;;;17.50;99.90;;;;;;5051912;28;20210;-70
2022/09/09 06:58:53;;;;;;;;;;;17.60;99.90;;;;;;5050900;28;20200;-69
2022/09/09 07:01:23;;;;;;;;;;;17.60;99.90;;;;;;5051206;28;20667;-69
2022/09/09 07:03:51;;;;;;;;;;;17.60;99.90;;;;;;5047660;28;20206;-69
2022/09/09 07:06:19;;;;;;;;;;;17.60;99.90;;;;;;5048946;28;20659;-69
2022/09/09 07:08:52;;;;;;;;;;;17.60;99.90;;;;;;5051689;28;20202;-69
2022/09/09 07:11:25;;;;;;;;;;;17.60;99.90;;;;;;5050597;28;20260;-69
2022/09/09 07:13:53;;;;;;;;;;;17.60;99.90;;;;;;5051940;28;20205;-70
2022/09/09 07:16:23;;;;;;;;;;;17.60;99.90;;;;;;5048829;28;20224;-69
2022/09/09 07:18:51;;;;;;;;;;;17.60;99.90;;;;;;5051555;28;20279;-69
2022/09/09 07:21:20;;;;;;;;;;;17.50;99.90;;;;;;5050291;28;20206;-69
2022/09/09 07:23:48;;;;;;;;;;;17.40;99.90;;;;;;5051652;28;20194;-68
2022/09/09 07:26:19;;;;;;;;;;;17.50;99.90;;;;;;5050039;28;20206;-70
2022/09/09 07:28:47;;;;;;;;;;;17.70;99.90;;;;;;5051328;28;20217;-69
2022/09/09 07:31:16;;;;;;;;;;;17.70;99.90;;;;;;5047166;28;20205;-69
2022/09/09 07:33:44;;;;;;;;;;;17.80;99.90;;;;;;5051450;28;20213;-69
2022/09/09 07:36:14;;;;;;;;;;;17.80;99.90;;;;;;5050745;28;20599;-70
2022/09/09 07:38:43;;;;;;;;;;;17.90;99.90;;;;;;5051429;28;20663;-69
2022/09/09 07:41:12;;;;;;;;;;;17.80;99.90;;;;;;5050552;28;20202;-69
2022/09/09 07:43:41;;;;;;;;;;;17.70;99.90;;;;;;5049549;28;20194;-69
2022/09/09 07:46:10;;;;;;;;;;;17.80;99.90;;;;;;5049507;28;20202;-69
2022/09/09 07:48:37;;;;;;;;;;;17.80;99.90;;;;;;5051394;28;20202;-69
2022/09/09 07:51:10;;;;;;;;;;;18.00;99.90;;;;;;5050273;28;20200;-70
2022/09/09 07:53:38;;;;;;;;;;;18.00;99.90;;;;;;5051416;28;20825;-70
2022/09/09 07:56:07;;;;;;;;;;;18.10;99.90;;;;;;5050654;28;20194;-69
2022/09/09 07:58:34;;;;;;;;;;;18.00;99.90;;;;;;5054929;28;20213;-70
2022/09/09 08:01:11;;;;;;;;;;;17.90;99.90;;;;;;5053238;28;20201;-69
2022/09/09 08:03:39;;;;;;;;;;;17.80;99.90;;;;;;5034832;28;20199;-69
2022/09/09 08:06:08;;;;;;;;;;;17.80;99.90;;;;;;5035184;28;20209;-68
2022/09/09 08:08:38;;;;;;;;;;;17.80;99.90;;;;;;5052020;28;20201;-70
2022/09/09 08:11:07;;;;;;;;;;;17.90;99.90;;;;;;5054657;28;20641;-68
2022/09/09 08:13:35;;;;;;;;;;;17.80;99.90;;;;;;5053644;28;20580;-70
2022/09/09 08:16:07;;;;;;;;;;;17.80;99.90;;;;;;5052951;28;20577;-69
2022/09/09 08:18:37;;;;;;;;;;;18.00;99.90;;;;;;5054731;28;20206;-69
2022/09/09 08:21:11;;;;;;;;;;;18.10;99.90;;;;;;5038860;28;20209;-70
2022/09/09 08:23:40;;;;;;;;;;;18.20;99.90;;;;;;5034949;28;20205;-69
2022/09/09 08:26:11;;;;;;;;;;;18.40;99.90;;;;;;5048334;28;20209;-69
2022/09/09 08:28:39;;;;;;;;;;;18.30;99.90;;;;;;5052986;28;20197;-69
2022/09/09 08:31:07;;;;;;;;;;;18.30;99.90;;;;;;5052377;28;20198;-69
2022/09/09 08:33:38;;;;;;;;;;;18.20;99.90;;;;;;5053053;28;20564;-68
2022/09/09 08:36:06;;;;;;;;;;;18.10;99.90;;;;;;5050320;28;20679;-70
2022/09/09 08:38:34;;;;;;;;;;;18.10;99.90;;;;;;5053245;28;20218;-68
2022/09/09 08:41:10;;;;;;;;;;;17.90;99.90;;;;;;5034142;28;20199;-69
2022/09/09 08:43:37;;;;;;;;;;;18.00;99.90;;;;;;5038038;28;20198;-69
2022/09/09 08:46:10;;;;;;;;;;;18.10;99.90;;;;;;5051180;28;20198;-69
2022/09/09 08:48:45;;;;;;;;;;;18.20;99.90;;;;;;5054096;28;20206;-68
2022/09/09 08:51:13;;;;;;;;;;;18.30;99.90;;;;;;5052911;28;20193;-69
2022/09/09 08:53:43;;;;;;;;;;;18.30;99.90;;;;;;5053911;28;20212;-69
2022/09/09 08:56:12;;;;;;;;;;;18.50;99.90;;;;;;5052667;28;20724;-68
2022/09/09 08:58:44;;;;;;;;;;;18.50;99.90;;;;;;5033745;28;20202;-67
2022/09/09 09:01:31;;;;;;;;;;;18.50;99.90;;;;;;5049735;28;20194;-68
2022/09/09 09:04:04;;;;;;;;;;;18.50;99.90;;;;;;5051089;28;20080;-67
2022/09/09 09:06:38;;;;;;;;;;;18.40;99.90;;;;;;5033779;28;20238;-68
2022/09/09 09:09:09;;;;;;;;;;;18.30;99.90;;;;;;5042069;28;20200;-68
2022/09/09 09:11:38;;;;;;;;;;;18.40;99.90;;;;;;5043795;28;20194;-68
2022/09/09 09:14:10;;;;;;;;;;;18.30;99.90;;;;;;5049088;28;20196;-68
2022/09/09 09:16:39;;;;;;;;;;;18.40;99.90;;;;;;5053445;28;20228;-69
2022/09/09 09:19:14;;;;;;;;;;;18.70;99.90;;;;;;5048912;28;20199;-68
2022/09/09 09:21:43;;;;;;;;;;;19.00;99.90;;;;;;5045660;28;20634;-69
2022/09/09 09:24:17;;;;;;;;;;;19.00;99.90;;;;;;5051690;28;20289;-69
2022/09/09 09:26:48;;;;;;;;;;;19.10;99.90;;;;;;5053581;28;20706;-69
2022/09/09 09:29:17;;;;;;;;;;;19.50;99.90;;;;;;5052340;28;20578;-70
2022/09/09 09:31:47;;;;;;;;;;;19.80;99.90;;;;;;5053519;28;20212;-69
2022/09/09 09:34:17;;;;;;;;;;;19.80;99.90;;;;;;5052495;28;20678;-69
2022/09/09 09:36:47;;;;;;;;;;;19.70;99.90;;;;;;5053373;28;20198;-70
2022/09/09 09:39:23;;;;;;;;;;;19.70;99.90;;;;;;5048245;28;20221;-70
2022/09/09 09:42:13;;;;;;;;;;;20.20;99.90;;;;;;5053123;28;20202;-70
2022/09/09 09:44:41;;;;;;;;;;;20.60;99.90;;;;;;5051548;28;20706;-69
2022/09/09 09:47:12;;;;;;;;;;;21.00;99.90;;;;;;5053297;28;20209;-69
2022/09/09 09:49:51;;;;;;;;;;;21.50;99.90;;;;;;5051274;28;20198;-71
2022/09/09 09:52:21;;;;;;;;;;;22.00;99.90;;;;;;5053333;28;20198;-69
2022/09/09 09:54:49;;;;;;;;;;;22.10;99.90;;;;;;5047530;28;20190;-69
2022/09/09 09:57:17;;;;;;;;;;;22.00;99.90;;;;;;5053147;28;20202;-70
2022/09/09 09:59:46;;;;;;;;;;;22.10;99.90;;;;;;5033605;28;20214;-69
2022/09/09 10:02:15;;;;;;;;;;;22.00;99.90;;;;;;5033064;28;20211;-69
2022/09/09 10:04:46;;;;;;;;;;;21.90;99.90;;;;;;5044592;28;20202;-69
2022/09/09 10:07:14;;;;;;;;;;;21.70;99.90;;;;;;5050840;28;20225;-69
2022/09/09 10:09:42;;;;;;;;;;;21.40;99.90;;;;;;5050523;28;20205;-69
2022/09/09 10:12:14;;;;;;;;;;;21.10;99.90;;;;;;5051775;28;20209;-69
2022/09/09 10:14:48;;;;;;;;;;;20.90;99.90;;;;;;5032631;28;20195;-70
2022/09/09 10:17:23;;;;;;;;;;;20.70;99.90;;;;;;5052590;28;20289;-69
2022/09/09 10:19:58;;;;;;;;;;;20.60;99.90;;;;;;5047418;28;20209;-69
2022/09/09 10:22:28;;;;;;;;;;;20.60;99.90;;;;;;5052583;28;20271;-69
2022/09/09 10:25:02;;;;;;;;;;;20.60;99.90;;;;;;5033592;28;20198;-69
2022/09/09 10:27:33;;;;;;;;;;;20.60;99.90;;;;;;5032430;28;20207;-69
2022/09/09 10:30:08;;;;;;;;;;;20.40;99.90;;;;;;5050146;28;20580;-69
2022/09/09 10:32:41;;;;;;;;;;;20.40;99.90;;;;;;5032503;28;20242;-69
2022/09/09 10:35:17;;;;;;;;;;;20.40;99.90;;;;;;5042983;28;20204;-68
2022/09/09 10:37:51;;;;;;;;;;;20.50;99.90;;;;;;5045188;28;20213;-67
2022/09/09 10:40:27;;;;;;;;;;;20.80;99.90;;;;;;5050015;28;20592;-70
2022/09/09 10:42:58;;;;;;;;;;;20.70;99.90;;;;;;5052202;28;20212;-69
2022/09/09 10:45:33;;;;;;;;;;;20.70;99.90;;;;;;5042719;28;20505;-69
2022/09/09 10:48:08;;;;;;;;;;;21.10;99.90;;;;;;5045551;28;20199;-69
2022/09/09 10:50:44;;;;;;;;;;;21.70;99.90;;;;;;5051696;28;20198;-69
2022/09/09 10:53:36;;;;;;;;;;;22.30;99.90;;;;;;5050824;28;20214;-69
2022/09/09 10:56:06;;;;;;;;;;;22.80;99.90;;;;;;5045826;28;20194;-69
2022/09/09 10:58:38;;;;;;;;;;;23.20;99.90;;;;;;5051630;28;20212;-69
2022/09/09 11:01:10;;;;;;;;;;;23.30;99.90;;;;;;5048561;28;20617;-68
2022/09/09 11:03:40;;;;;;;;;;;23.50;99.90;;;;;;5051941;28;20286;-70
2022/09/09 11:06:13;;;;;;;;;;;23.60;99.90;;;;;;5050892;28;20240;-70
2022/09/09 11:08:41;;;;;;;;;;;23.60;99.90;;;;;;5047097;28;20217;-69
2022/09/09 11:11:11;;;;;;;;;;;23.70;99.90;;;;;;5048698;28;20210;-69
2022/09/09 11:13:43;;;;;;;;;;;24.00;99.90;;;;;;5043932;28;20206;-67
2022/09/09 11:16:17;;;;;;;;;;;24.10;99.90;;;;;;5050642;28;20198;-69
2022/09/09 11:18:46;;;;;;;;;;;24.30;99.90;;;;;;5043029;28;20201;-69
2022/09/09 11:21:18;;;;;;;;;;;24.20;99.90;;;;;;5051697;28;20734;-69
2022/09/09 11:23:48;;;;;;;;;;;24.40;99.90;;;;;;5042465;28;20285;-69
2022/09/09 11:26:19;;;;;;;;;;;24.70;99.90;;;;;;5051815;28;20194;-69
2022/09/09 11:28:57;;;;;;;;;;;24.30;99.90;;;;;;5050560;28;20628;-69
2022/09/09 11:31:39;;;;;;;;;;;24.20;99.90;;;;;;5052428;28;20568;-70
2022/09/09 11:34:31;;;;;;;;;;;24.50;99.90;;;;;;5039675;28;20683;-69
2022/09/09 11:37:09;;;;;;;;;;;24.90;99.90;;;;;;5021043;28;20646;-69
2022/09/09 11:39:42;;;;;;;;;;;24.70;99.90;;;;;;5053544;28;20702;-69
2022/09/09 11:42:16;;;;;;;;;;;24.50;99.90;;;;;;5055519;28;20635;-69
2022/09/09 11:44:44;;;;;;;;;;;24.00;99.90;;;;;;5048326;28;20206;-69
2022/09/09 11:47:20;;;;;;;;;;;23.80;99.90;;;;;;5054696;28;20576;-69
2022/09/09 11:49:48;;;;;;;;;;;23.60;99.90;;;;;;5048653;28;20206;-69
2022/09/09 11:52:22;;;;;;;;;;;23.50;99.90;;;;;;5055372;28;20202;-69
2022/09/09 11:54:50;;;;;;;;;;;23.20;99.90;;;;;;5048877;28;20191;-69
2022/09/09 11:57:24;;;;;;;;;;;23.10;99.90;;;;;;5054522;28;20209;-68
2022/09/09 11:59:52;;;;;;;;;;;22.90;99.90;;;;;;5047777;28;20202;-69
2022/09/09 12:02:23;;;;;;;;;;;22.60;99.90;;;;;;5054796;28;20202;-71
2022/09/09 12:04:57;;;;;;;;;;;22.30;99.90;;;;;;5054048;28;20229;-72
2022/09/09 12:07:30;;;;;;;;;;;22.30;99.90;;;;;;5052359;28;20687;-70
2022/09/09 12:10:00;;;;;;;;;;;22.30;99.90;;;;;;5049553;28;20220;-72
2022/09/09 12:12:29;;;;;;;;;;;22.20;99.90;;;;;;5050039;28;20218;-71
2022/09/09 12:15:02;;;;;;;;;;;22.00;99.90;;;;;;5051799;28;20206;-71
2022/09/09 12:17:30;;;;;;;;;;;22.00;99.90;;;;;;5047578;28;20278;-69
2022/09/09 12:20:05;;;;;;;;;;;21.80;99.90;;;;;;5052569;28;20659;-69
2022/09/09 12:22:39;;;;;;;;;;;21.60;99.90;;;;;;5046238;28;20203;-69
2022/09/09 12:25:11;;;;;;;;;;;21.60;99.90;;;;;;5054638;28;20209;-68
2022/09/09 12:27:45;;;;;;;;;;;21.40;99.90;;;;;;5045016;28;20207;-71
2022/09/09 12:30:15;;;;;;;;;;;21.00;99.90;;;;;;5051122;28;20256;-71
2022/09/09 12:32:44;;;;;;;;;;;20.10;99.90;;;;;;5052791;28;20572;-70
2022/09/09 12:35:12;;;;;;;;;;;19.40;99.90;;;;;;5051221;28;20209;-71
2022/09/09 12:37:44;;;;;;;;;;;19.10;99.90;;;;;;5079375;22;20196;-63
2022/09/09 12:40:20;;;;;;;;;;;19.00;99.90;;;;;;5048794;28;20198;-64
2022/09/09 12:42:48;;;;;;;;;;;19.10;99.90;;;;;;5054219;28;20206;-64
2022/09/09 12:45:17;;;;;;;;;;;19.10;99.90;;;;;;5053424;28;20586;-64
2022/09/09 12:47:47;;;;;;;;;;;19.20;99.90;;;;;;5054334;28;20202;-64
2022/09/09 12:50:19;;;;;;;;;;;19.10;99.90;;;;;;5051227;28;20198;-65
2022/09/09 12:52:50;;;;;;;;;;;19.00;99.90;;;;;;5054571;28;20213;-65
2022/09/09 12:55:20;;;;;;;;;;;19.00;99.90;;;;;;5049461;28;20202;-64
2022/09/09 12:57:49;;;;;;;;;;;19.10;99.90;;;;;;5054091;28;20206;-64
2022/09/09 13:00:20;;;;;;;;;;;19.20;99.90;;;;;;5050819;28;20805;-64
2022/09/09 13:02:50;;;;;;;;;;;19.50;99.90;;;;;;5054244;28;20579;-65
2022/09/09 13:05:19;;;;;;;;;;;19.90;99.90;;;;;;5045389;28;20657;-64
2022/09/09 13:07:46;;;;;;;;;;;20.50;99.90;;;;;;5053946;28;20195;-64
2022/09/09 13:10:21;;;;;;;;;;;21.10;99.90;;;;;;5051714;28;20194;-65
2022/09/09 13:13:04;;;;;;;;;;;21.50;99.90;;;;;;5053339;28;20207;-66
2022/09/09 13:15:32;;;;;;;;;;;21.80;99.90;;;;;;5050322;28;20194;-63
2022/09/09 13:18:03;;;;;;;;;;;21.50;99.90;;;;;;5053674;28;20261;-64
2022/09/09 13:20:31;;;;;;;;;;;21.70;99.90;;;;;;5052385;28;20645;-64
2022/09/09 13:22:58;;;;;;;;;;;21.80;99.90;;;;;;5053656;28;20203;-64
2022/09/09 13:25:28;;;;;;;;;;;21.80;99.90;;;;;;5052494;28;20205;-64
2022/09/09 13:27:58;;;;;;;;;;;22.30;99.90;;;;;;5053841;28;20222;-64
2022/09/09 13:30:27;;;;;;;;;;;22.90;99.90;;;;;;5051675;28;20198;-65
2022/09/09 13:33:06;;;;;;;;;;;23.20;99.90;;;;;;5053559;28;20202;-64
2022/09/09 13:35:34;;;;;;;;;;;23.40;99.90;;;;;;5053334;28;20198;-64
2022/09/09 13:38:08;;;;;;;;;;;24.00;99.90;;;;;;5053145;28;20218;-64
2022/09/09 13:40:38;;;;;;;;;;;24.30;99.90;;;;;;5044802;28;20217;-64
2022/09/09 13:43:06;;;;;;;;;;;24.30;99.90;;;;;;5052625;28;20202;-64
2022/09/09 13:45:34;;;;;;;;;;;23.70;99.90;;;;;;5052922;28;20281;-64
2022/09/09 13:48:10;;;;;;;;;;;23.70;99.90;;;;;;5053242;28;20308;-64
2022/09/09 13:50:38;;;;;;;;;;;23.50;99.90;;;;;;5052172;28;20197;-64
2022/09/09 13:53:05;;;;;;;;;;;23.40;99.90;;;;;;5052077;28;20281;-64
2022/09/09 13:55:33;;;;;;;;;;;22.80;99.90;;;;;;5052374;28;20282;-64
2022/09/09 13:58:04;;;;;;;;;;;22.40;99.90;;;;;;5051284;28;20190;-64
2022/09/09 14:00:33;;;;;;;;;;;21.90;99.90;;;;;;5043791;28;20199;-64
2022/09/09 14:03:01;;;;;;;;;;;21.40;99.90;;;;;;5047902;28;20209;-64
2022/09/09 14:05:30;;;;;;;;;;;21.20;99.90;;;;;;5044113;28;20205;-64
2022/09/09 14:08:00;;;;;;;;;;;21.00;99.90;;;;;;5052757;28;20202;-64
2022/09/09 14:10:27;;;;;;;;;;;20.90;99.90;;;;;;5033934;28;20285;-64
2022/09/09 14:12:55;;;;;;;;;;;20.70;99.90;;;;;;5032864;28;20205;-63
2022/09/09 14:15:24;;;;;;;;;;;20.40;99.90;;;;;;5049233;28;20204;-64
2022/09/09 14:17:52;;;;;;;;;;;20.20;99.90;;;;;;5051610;28;20232;-64
2022/09/09 14:20:20;;;;;;;;;;;20.00;99.90;;;;;;5044201;28;20202;-64
2022/09/09 14:22:48;;;;;;;;;;;19.80;99.90;;;;;;5052520;28;20199;-64
2022/09/09 14:25:16;;;;;;;;;;;19.60;99.90;;;;;;5051558;28;20521;-63
2022/09/09 14:27:45;;;;;;;;;;;19.50;99.90;;;;;;5052369;28;20205;-64
2022/09/09 14:30:13;;;;;;;;;;;19.50;99.90;;;;;;5049951;28;20204;-64
2022/09/09 14:32:42;;;;;;;;;;;19.40;99.90;;;;;;5052224;28;20206;-63
2022/09/09 14:35:10;;;;;;;;;;;19.30;99.90;;;;;;5044552;28;20209;-63